sensor_id;sensor_type;location;lat;lon;timestamp;P1;durP1;ratioP1;P2;durP2;ratioP2
15635;SDS011;7917;50.818;6.972;2023-03-01T00:00:53;16.58;;;9.40;;
15635;SDS011;7917;50.818;6.972;2023-03-01T00:03:21;13.63;;;8.90;;
15635;SDS011;7917;50.818;6.972;2023-03-01T00:05:47;16.67;;;9.05;;
15635;SDS011;7917;50.818;6.972;2023-03-01T00:08:16;14.20;;;8.70;;
15635;SDS011;7917;50.818;6.972;2023-03-01T00:10:43;17.13;;;9.73;;
15635;SDS011;7917;50.818;6.972;2023-03-01T00:13:10;12.32;;;8.27;;
15635;SDS011;7917;50.818;6.972;2023-03-01T00:15:38;12.65;;;8.75;;
15635;SDS011;7917;50.818;6.972;2023-03-01T00:18:05;17.38;;;9.85;;
15635;SDS011;7917;50.818;6.972;2023-03-01T00:20:32;16.25;;;9.25;;
15635;SDS011;7917;50.818;6.972;2023-03-01T00:22:59;15.70;;;9.93;;
15635;SDS011;7917;50.818;6.972;2023-03-01T00:25:29;21.80;;;9.90;;
15635;SDS011;7917;50.818;6.972;2023-03-01T00:27:56;17.15;;;9.63;;
15635;SDS011;7917;50.818;6.972;2023-03-01T00:30:22;17.15;;;9.75;;
15635;SDS011;7917;50.818;6.972;2023-03-01T00:32:49;16.33;;;9.48;;
15635;SDS011;7917;50.818;6.972;2023-03-01T00:35:15;16.25;;;9.57;;
15635;SDS011;7917;50.818;6.972;2023-03-01T00:37:42;13.57;;;9.32;;
15635;SDS011;7917;50.818;6.972;2023-03-01T00:40:09;15.90;;;9.10;;
15635;SDS011;7917;50.818;6.972;2023-03-01T00:42:36;15.07;;;9.13;;
15635;SDS011;7917;50.818;6.972;2023-03-01T00:45:04;15.60;;;9.55;;
15635;SDS011;7917;50.818;6.972;2023-03-01T00:47:32;15.13;;;8.90;;
15635;SDS011;7917;50.818;6.972;2023-03-01T00:49:59;17.38;;;9.30;;
15635;SDS011;7917;50.818;6.972;2023-03-01T00:52:26;16.08;;;8.95;;
15635;SDS011;7917;50.818;6.972;2023-03-01T00:54:55;14.82;;;8.68;;
15635;SDS011;7917;50.818;6.972;2023-03-01T00:57:23;13.25;;;8.30;;
15635;SDS011;7917;50.818;6.972;2023-03-01T00:59:49;14.00;;;8.13;;
15635;SDS011;7917;50.818;6.972;2023-03-01T01:02:17;16.63;;;8.68;;
15635;SDS011;7917;50.818;6.972;2023-03-01T01:04:44;13.38;;;8.88;;
15635;SDS011;7917;50.818;6.972;2023-03-01T01:07:11;13.05;;;8.02;;
15635;SDS011;7917;50.818;6.972;2023-03-01T01:13:00;11.93;;;7.78;;
15635;SDS011;7917;50.818;6.972;2023-03-01T01:15:28;14.07;;;7.88;;
15635;SDS011;7917;50.818;6.972;2023-03-01T01:17:54;15.75;;;8.73;;
15635;SDS011;7917;50.818;6.972;2023-03-01T01:20:21;14.18;;;7.43;;
15635;SDS011;7917;50.818;6.972;2023-03-01T01:22:47;15.40;;;7.82;;
15635;SDS011;7917;50.818;6.972;2023-03-01T01:25:14;11.95;;;7.78;;
15635;SDS011;7917;50.818;6.972;2023-03-01T01:27:40;12.80;;;8.98;;
15635;SDS011;7917;50.818;6.972;2023-03-01T01:30:08;15.00;;;8.00;;
15635;SDS011;7917;50.818;6.972;2023-03-01T01:32:35;12.95;;;8.23;;
15635;SDS011;7917;50.818;6.972;2023-03-01T01:35:03;12.10;;;8.75;;
15635;SDS011;7917;50.818;6.972;2023-03-01T01:37:30;14.68;;;8.82;;
15635;SDS011;7917;50.818;6.972;2023-03-01T01:39:56;13.52;;;8.35;;
15635;SDS011;7917;50.818;6.972;2023-03-01T01:42:23;13.68;;;7.97;;
15635;SDS011;7917;50.818;6.972;2023-03-01T01:47:51;13.13;;;8.38;;
15635;SDS011;7917;50.818;6.972;2023-03-01T01:50:20;12.25;;;8.50;;
15635;SDS011;7917;50.818;6.972;2023-03-01T01:52:47;13.52;;;8.88;;
15635;SDS011;7917;50.818;6.972;2023-03-01T01:55:16;14.77;;;8.40;;
15635;SDS011;7917;50.818;6.972;2023-03-01T01:57:48;13.82;;;9.05;;
15635;SDS011;7917;50.818;6.972;2023-03-01T02:00:19;16.33;;;8.55;;
15635;SDS011;7917;50.818;6.972;2023-03-01T02:02:48;14.68;;;8.95;;
15635;SDS011;7917;50.818;6.972;2023-03-01T02:05:21;12.75;;;7.75;;
15635;SDS011;7917;50.818;6.972;2023-03-01T02:07:54;12.80;;;7.82;;
15635;SDS011;7917;50.818;6.972;2023-03-01T02:10:22;16.80;;;8.70;;
15635;SDS011;7917;50.818;6.972;2023-03-01T02:12:50;14.13;;;8.45;;
15635;SDS011;7917;50.818;6.972;2023-03-01T02:15:22;10.93;;;8.02;;
15635;SDS011;7917;50.818;6.972;2023-03-01T02:17:52;13.15;;;7.68;;
15635;SDS011;7917;50.818;6.972;2023-03-01T02:20:21;11.23;;;7.82;;
15635;SDS011;7917;50.818;6.972;2023-03-01T02:22:52;14.65;;;9.05;;
15635;SDS011;7917;50.818;6.972;2023-03-01T02:25:26;14.27;;;9.82;;
15635;SDS011;7917;50.818;6.972;2023-03-01T02:27:57;14.77;;;8.70;;
15635;SDS011;7917;50.818;6.972;2023-03-01T02:30:31;15.32;;;9.40;;
15635;SDS011;7917;50.818;6.972;2023-03-01T02:32:58;13.57;;;9.30;;
15635;SDS011;7917;50.818;6.972;2023-03-01T02:35:34;15.20;;;8.90;;
15635;SDS011;7917;50.818;6.972;2023-03-01T02:38:03;13.07;;;8.43;;
15635;SDS011;7917;50.818;6.972;2023-03-01T02:40:33;16.48;;;9.10;;
15635;SDS011;7917;50.818;6.972;2023-03-01T02:43:01;13.68;;;8.48;;
15635;SDS011;7917;50.818;6.972;2023-03-01T02:45:32;16.38;;;10.05;;
15635;SDS011;7917;50.818;6.972;2023-03-01T02:47:59;17.98;;;11.23;;
15635;SDS011;7917;50.818;6.972;2023-03-01T02:50:35;17.30;;;12.15;;
15635;SDS011;7917;50.818;6.972;2023-03-01T02:53:21;18.35;;;11.63;;
15635;SDS011;7917;50.818;6.972;2023-03-01T02:55:54;18.45;;;11.93;;
15635;SDS011;7917;50.818;6.972;2023-03-01T02:58:21;18.70;;;11.40;;
15635;SDS011;7917;50.818;6.972;2023-03-01T03:00:48;15.35;;;9.85;;
15635;SDS011;7917;50.818;6.972;2023-03-01T03:03:19;19.20;;;10.65;;
15635;SDS011;7917;50.818;6.972;2023-03-01T03:05:48;18.63;;;10.38;;
15635;SDS011;7917;50.818;6.972;2023-03-01T03:08:14;18.02;;;10.60;;
15635;SDS011;7917;50.818;6.972;2023-03-01T03:10:48;20.45;;;11.57;;
15635;SDS011;7917;50.818;6.972;2023-03-01T03:13:15;21.95;;;10.05;;
15635;SDS011;7917;50.818;6.972;2023-03-01T03:15:44;18.67;;;10.13;;
15635;SDS011;7917;50.818;6.972;2023-03-01T03:18:12;15.52;;;10.65;;
15635;SDS011;7917;50.818;6.972;2023-03-01T03:20:41;19.33;;;9.55;;
15635;SDS011;7917;50.818;6.972;2023-03-01T03:23:09;15.80;;;9.82;;
15635;SDS011;7917;50.818;6.972;2023-03-01T03:25:36;15.07;;;9.70;;
15635;SDS011;7917;50.818;6.972;2023-03-01T03:28:03;18.25;;;9.88;;
15635;SDS011;7917;50.818;6.972;2023-03-01T03:30:35;16.20;;;10.02;;
15635;SDS011;7917;50.818;6.972;2023-03-01T03:33:04;14.65;;;9.43;;
15635;SDS011;7917;50.818;6.972;2023-03-01T03:35:33;19.58;;;10.70;;
15635;SDS011;7917;50.818;6.972;2023-03-01T03:38:04;19.88;;;9.80;;
15635;SDS011;7917;50.818;6.972;2023-03-01T03:40:34;19.23;;;9.80;;
15635;SDS011;7917;50.818;6.972;2023-03-01T03:43:02;16.33;;;9.32;;
15635;SDS011;7917;50.818;6.972;2023-03-01T03:45:31;15.80;;;9.65;;
15635;SDS011;7917;50.818;6.972;2023-03-01T03:47:58;14.85;;;9.88;;
15635;SDS011;7917;50.818;6.972;2023-03-01T03:50:25;16.45;;;9.68;;
15635;SDS011;7917;50.818;6.972;2023-03-01T03:52:52;14.98;;;9.50;;
15635;SDS011;7917;50.818;6.972;2023-03-01T03:55:19;17.15;;;10.45;;
15635;SDS011;7917;50.818;6.972;2023-03-01T03:57:46;16.73;;;9.80;;
15635;SDS011;7917;50.818;6.972;2023-03-01T04:00:17;15.65;;;9.00;;
15635;SDS011;7917;50.818;6.972;2023-03-01T04:02:45;17.20;;;9.15;;
15635;SDS011;7917;50.818;6.972;2023-03-01T04:05:15;17.67;;;9.45;;
15635;SDS011;7917;50.818;6.972;2023-03-01T04:07:44;17.52;;;8.98;;
15635;SDS011;7917;50.818;6.972;2023-03-01T04:10:13;16.25;;;10.00;;
15635;SDS011;7917;50.818;6.972;2023-03-01T04:12:40;15.05;;;9.60;;
15635;SDS011;7917;50.818;6.972;2023-03-01T04:15:11;14.70;;;9.60;;
15635;SDS011;7917;50.818;6.972;2023-03-01T04:17:43;19.10;;;9.70;;
15635;SDS011;7917;50.818;6.972;2023-03-01T04:20:12;17.33;;;9.07;;
15635;SDS011;7917;50.818;6.972;2023-03-01T04:22:45;15.40;;;9.13;;
15635;SDS011;7917;50.818;6.972;2023-03-01T04:25:15;16.00;;;9.52;;
15635;SDS011;7917;50.818;6.972;2023-03-01T04:27:41;16.50;;;10.07;;
15635;SDS011;7917;50.818;6.972;2023-03-01T04:30:08;16.17;;;8.77;;
15635;SDS011;7917;50.818;6.972;2023-03-01T04:32:37;18.85;;;9.13;;
15635;SDS011;7917;50.818;6.972;2023-03-01T04:35:03;18.67;;;9.93;;
15635;SDS011;7917;50.818;6.972;2023-03-01T04:37:30;19.90;;;11.05;;
15635;SDS011;7917;50.818;6.972;2023-03-01T04:39:56;17.05;;;10.00;;
15635;SDS011;7917;50.818;6.972;2023-03-01T04:42:24;14.40;;;9.65;;
15635;SDS011;7917;50.818;6.972;2023-03-01T04:44:53;18.73;;;9.63;;
15635;SDS011;7917;50.818;6.972;2023-03-01T04:47:22;14.70;;;9.52;;
15635;SDS011;7917;50.818;6.972;2023-03-01T04:49:48;14.32;;;9.20;;
15635;SDS011;7917;50.818;6.972;2023-03-01T04:52:15;15.52;;;9.32;;
15635;SDS011;7917;50.818;6.972;2023-03-01T04:54:41;16.65;;;8.65;;
15635;SDS011;7917;50.818;6.972;2023-03-01T04:57:09;18.58;;;9.90;;
15635;SDS011;7917;50.818;6.972;2023-03-01T04:59:36;23.67;;;10.35;;
15635;SDS011;7917;50.818;6.972;2023-03-01T05:02:02;20.90;;;10.63;;
15635;SDS011;7917;50.818;6.972;2023-03-01T05:04:30;14.98;;;9.38;;
15635;SDS011;7917;50.818;6.972;2023-03-01T05:06:56;24.35;;;10.20;;
15635;SDS011;7917;50.818;6.972;2023-03-01T05:09:23;14.98;;;9.45;;
15635;SDS011;7917;50.818;6.972;2023-03-01T05:11:50;18.73;;;10.68;;
15635;SDS011;7917;50.818;6.972;2023-03-01T05:14:21;17.23;;;9.98;;
15635;SDS011;7917;50.818;6.972;2023-03-01T05:16:48;17.33;;;10.02;;
15635;SDS011;7917;50.818;6.972;2023-03-01T05:19:18;19.17;;;10.50;;
15635;SDS011;7917;50.818;6.972;2023-03-01T05:21:47;18.10;;;10.15;;
15635;SDS011;7917;50.818;6.972;2023-03-01T05:24:31;17.08;;;10.35;;
15635;SDS011;7917;50.818;6.972;2023-03-01T05:26:59;20.35;;;10.18;;
15635;SDS011;7917;50.818;6.972;2023-03-01T05:29:26;16.20;;;9.70;;
15635;SDS011;7917;50.818;6.972;2023-03-01T05:31:55;21.38;;;10.40;;
15635;SDS011;7917;50.818;6.972;2023-03-01T05:34:24;15.07;;;9.68;;
15635;SDS011;7917;50.818;6.972;2023-03-01T05:36:52;16.83;;;9.85;;
15635;SDS011;7917;50.818;6.972;2023-03-01T05:39:19;15.98;;;9.32;;
15635;SDS011;7917;50.818;6.972;2023-03-01T05:41:47;19.13;;;10.57;;
15635;SDS011;7917;50.818;6.972;2023-03-01T05:44:13;19.30;;;10.60;;
15635;SDS011;7917;50.818;6.972;2023-03-01T05:46:41;17.05;;;9.68;;
15635;SDS011;7917;50.818;6.972;2023-03-01T05:49:08;16.90;;;9.95;;
15635;SDS011;7917;50.818;6.972;2023-03-01T05:51:35;16.92;;;9.82;;
15635;SDS011;7917;50.818;6.972;2023-03-01T05:54:01;20.90;;;10.88;;
15635;SDS011;7917;50.818;6.972;2023-03-01T05:56:32;16.73;;;9.52;;
15635;SDS011;7917;50.818;6.972;2023-03-01T05:58:59;21.83;;;10.63;;
15635;SDS011;7917;50.818;6.972;2023-03-01T06:01:26;16.45;;;9.57;;
15635;SDS011;7917;50.818;6.972;2023-03-01T06:03:52;21.15;;;11.23;;
15635;SDS011;7917;50.818;6.972;2023-03-01T06:06:20;18.20;;;10.75;;
15635;SDS011;7917;50.818;6.972;2023-03-01T06:08:46;19.80;;;10.52;;
15635;SDS011;7917;50.818;6.972;2023-03-01T06:11:12;19.50;;;11.05;;
15635;SDS011;7917;50.818;6.972;2023-03-01T06:13:40;18.63;;;10.00;;
15635;SDS011;7917;50.818;6.972;2023-03-01T06:16:07;20.33;;;10.68;;
15635;SDS011;7917;50.818;6.972;2023-03-01T06:18:40;16.63;;;10.20;;
15635;SDS011;7917;50.818;6.972;2023-03-01T06:21:08;17.90;;;10.30;;
15635;SDS011;7917;50.818;6.972;2023-03-01T06:23:35;18.13;;;10.73;;
15635;SDS011;7917;50.818;6.972;2023-03-01T06:26:05;25.80;;;11.43;;
15635;SDS011;7917;50.818;6.972;2023-03-01T06:28:35;18.50;;;10.82;;
15635;SDS011;7917;50.818;6.972;2023-03-01T06:31:01;18.98;;;10.65;;
15635;SDS011;7917;50.818;6.972;2023-03-01T06:33:28;18.02;;;10.00;;
15635;SDS011;7917;50.818;6.972;2023-03-01T06:35:55;19.05;;;11.18;;
15635;SDS011;7917;50.818;6.972;2023-03-01T06:38:21;15.65;;;10.52;;
15635;SDS011;7917;50.818;6.972;2023-03-01T06:40:52;19.45;;;11.05;;
15635;SDS011;7917;50.818;6.972;2023-03-01T06:43:20;22.40;;;12.00;;
15635;SDS011;7917;50.818;6.972;2023-03-01T06:45:47;23.13;;;11.85;;
15635;SDS011;7917;50.818;6.972;2023-03-01T06:48:13;20.33;;;11.60;;
15635;SDS011;7917;50.818;6.972;2023-03-01T06:50:40;23.25;;;11.15;;
15635;SDS011;7917;50.818;6.972;2023-03-01T06:53:07;19.88;;;12.13;;
15635;SDS011;7917;50.818;6.972;2023-03-01T06:55:33;21.88;;;11.73;;
15635;SDS011;7917;50.818;6.972;2023-03-01T06:58:03;18.67;;;11.40;;
15635;SDS011;7917;50.818;6.972;2023-03-01T07:00:30;19.75;;;11.20;;
15635;SDS011;7917;50.818;6.972;2023-03-01T07:02:58;21.52;;;11.70;;
15635;SDS011;7917;50.818;6.972;2023-03-01T07:05:26;21.67;;;13.13;;
15635;SDS011;7917;50.818;6.972;2023-03-01T07:07:53;20.83;;;11.80;;
15635;SDS011;7917;50.818;6.972;2023-03-01T07:10:21;20.70;;;12.32;;
15635;SDS011;7917;50.818;6.972;2023-03-01T07:12:50;22.15;;;13.27;;
15635;SDS011;7917;50.818;6.972;2023-03-01T07:15:21;25.35;;;12.63;;
15635;SDS011;7917;50.818;6.972;2023-03-01T07:17:48;22.70;;;12.88;;
15635;SDS011;7917;50.818;6.972;2023-03-01T07:20:16;24.60;;;13.75;;
15635;SDS011;7917;50.818;6.972;2023-03-01T07:22:43;21.40;;;13.77;;
15635;SDS011;7917;50.818;6.972;2023-03-01T07:25:09;25.70;;;13.63;;
15635;SDS011;7917;50.818;6.972;2023-03-01T07:27:37;30.30;;;14.40;;
15635;SDS011;7917;50.818;6.972;2023-03-01T07:30:03;23.85;;;12.63;;
15635;SDS011;7917;50.818;6.972;2023-03-01T07:32:31;24.63;;;14.45;;
15635;SDS011;7917;50.818;6.972;2023-03-01T07:34:59;23.17;;;12.18;;
15635;SDS011;7917;50.818;6.972;2023-03-01T07:37:25;19.80;;;11.48;;
15635;SDS011;7917;50.818;6.972;2023-03-01T07:39:52;24.63;;;13.50;;
15635;SDS011;7917;50.818;6.972;2023-03-01T07:42:18;18.52;;;11.82;;
15635;SDS011;7917;50.818;6.972;2023-03-01T07:44:45;20.60;;;11.90;;
15635;SDS011;7917;50.818;6.972;2023-03-01T07:47:11;20.67;;;11.18;;
15635;SDS011;7917;50.818;6.972;2023-03-01T07:49:39;25.70;;;11.88;;
15635;SDS011;7917;50.818;6.972;2023-03-01T07:52:05;20.92;;;11.55;;
15635;SDS011;7917;50.818;6.972;2023-03-01T07:54:32;21.10;;;12.35;;
15635;SDS011;7917;50.818;6.972;2023-03-01T07:57:00;22.80;;;13.10;;
15635;SDS011;7917;50.818;6.972;2023-03-01T07:59:27;29.70;;;14.63;;
15635;SDS011;7917;50.818;6.972;2023-03-01T08:01:55;26.35;;;14.95;;
15635;SDS011;7917;50.818;6.972;2023-03-01T08:04:22;23.55;;;14.63;;
15635;SDS011;7917;50.818;6.972;2023-03-01T08:06:52;24.77;;;15.38;;
15635;SDS011;7917;50.818;6.972;2023-03-01T08:09:21;25.10;;;14.63;;
15635;SDS011;7917;50.818;6.972;2023-03-01T08:11:47;23.63;;;13.27;;
15635;SDS011;7917;50.818;6.972;2023-03-01T08:14:14;24.88;;;13.13;;
15635;SDS011;7917;50.818;6.972;2023-03-01T08:16:40;22.05;;;14.52;;
15635;SDS011;7917;50.818;6.972;2023-03-01T08:19:08;26.08;;;14.43;;
15635;SDS011;7917;50.818;6.972;2023-03-01T08:21:36;26.27;;;13.77;;
15635;SDS011;7917;50.818;6.972;2023-03-01T08:24:04;25.90;;;14.85;;
15635;SDS011;7917;50.818;6.972;2023-03-01T08:26:33;27.85;;;14.55;;
15635;SDS011;7917;50.818;6.972;2023-03-01T08:28:59;25.00;;;13.45;;
15635;SDS011;7917;50.818;6.972;2023-03-01T08:31:27;28.35;;;14.98;;
15635;SDS011;7917;50.818;6.972;2023-03-01T08:33:56;23.30;;;13.32;;
15635;SDS011;7917;50.818;6.972;2023-03-01T08:39:28;21.90;;;13.50;;
15635;SDS011;7917;50.818;6.972;2023-03-01T08:41:54;28.02;;;14.27;;
15635;SDS011;7917;50.818;6.972;2023-03-01T08:44:21;25.15;;;13.88;;
15635;SDS011;7917;50.818;6.972;2023-03-01T08:46:47;22.83;;;13.50;;
15635;SDS011;7917;50.818;6.972;2023-03-01T08:49:17;20.58;;;13.05;;
15635;SDS011;7917;50.818;6.972;2023-03-01T08:51:45;24.85;;;14.02;;
15635;SDS011;7917;50.818;6.972;2023-03-01T08:54:12;24.38;;;13.35;;
15635;SDS011;7917;50.818;6.972;2023-03-01T08:56:41;20.02;;;12.52;;
15635;SDS011;7917;50.818;6.972;2023-03-01T08:59:11;23.80;;;13.25;;
15635;SDS011;7917;50.818;6.972;2023-03-01T09:01:37;21.67;;;14.10;;
15635;SDS011;7917;50.818;6.972;2023-03-01T09:04:06;20.88;;;13.40;;
15635;SDS011;7917;50.818;6.972;2023-03-01T09:06:33;24.50;;;13.27;;
15635;SDS011;7917;50.818;6.972;2023-03-01T09:08:59;20.80;;;13.60;;
15635;SDS011;7917;50.818;6.972;2023-03-01T09:11:27;19.30;;;13.43;;
15635;SDS011;7917;50.818;6.972;2023-03-01T09:13:56;27.25;;;13.50;;
15635;SDS011;7917;50.818;6.972;2023-03-01T09:16:23;20.73;;;12.93;;
15635;SDS011;7917;50.818;6.972;2023-03-01T09:18:50;23.08;;;13.48;;
15635;SDS011;7917;50.818;6.972;2023-03-01T09:21:20;20.00;;;12.85;;
15635;SDS011;7917;50.818;6.972;2023-03-01T09:23:48;25.50;;;13.50;;
15635;SDS011;7917;50.818;6.972;2023-03-01T09:26:15;25.05;;;13.77;;
15635;SDS011;7917;50.818;6.972;2023-03-01T09:28:44;26.45;;;14.52;;
15635;SDS011;7917;50.818;6.972;2023-03-01T09:31:12;22.48;;;14.45;;
15635;SDS011;7917;50.818;6.972;2023-03-01T09:33:39;22.08;;;13.07;;
15635;SDS011;7917;50.818;6.972;2023-03-01T09:36:07;25.33;;;13.88;;
15635;SDS011;7917;50.818;6.972;2023-03-01T09:38:36;20.42;;;13.40;;
15635;SDS011;7917;50.818;6.972;2023-03-01T09:41:08;27.80;;;14.80;;
15635;SDS011;7917;50.818;6.972;2023-03-01T09:43:41;21.27;;;13.88;;
15635;SDS011;7917;50.818;6.972;2023-03-01T09:46:12;21.58;;;13.70;;
15635;SDS011;7917;50.818;6.972;2023-03-01T09:48:42;19.50;;;12.68;;
15635;SDS011;7917;50.818;6.972;2023-03-01T09:51:12;21.70;;;13.15;;
15635;SDS011;7917;50.818;6.972;2023-03-01T09:53:43;22.63;;;13.52;;
15635;SDS011;7917;50.818;6.972;2023-03-01T09:56:12;21.13;;;12.13;;
15635;SDS011;7917;50.818;6.972;2023-03-01T09:58:47;20.45;;;12.23;;
15635;SDS011;7917;50.818;6.972;2023-03-01T10:01:25;19.95;;;12.40;;
15635;SDS011;7917;50.818;6.972;2023-03-01T10:04:05;19.83;;;12.38;;
15635;SDS011;7917;50.818;6.972;2023-03-01T10:06:54;23.40;;;12.57;;
15635;SDS011;7917;50.818;6.972;2023-03-01T10:09:32;19.23;;;12.13;;
15635;SDS011;7917;50.818;6.972;2023-03-01T10:12:02;19.48;;;12.63;;
15635;SDS011;7917;50.818;6.972;2023-03-01T10:14:35;21.85;;;12.00;;
15635;SDS011;7917;50.818;6.972;2023-03-01T10:17:08;17.48;;;11.93;;
15635;SDS011;7917;50.818;6.972;2023-03-01T10:19:44;20.45;;;12.60;;
15635;SDS011;7917;50.818;6.972;2023-03-01T10:22:16;18.77;;;11.88;;
15635;SDS011;7917;50.818;6.972;2023-03-01T10:24:46;18.60;;;11.23;;
15635;SDS011;7917;50.818;6.972;2023-03-01T10:27:14;22.25;;;13.32;;
15635;SDS011;7917;50.818;6.972;2023-03-01T10:29:50;25.17;;;11.85;;
15635;SDS011;7917;50.818;6.972;2023-03-01T10:32:26;18.73;;;12.20;;
15635;SDS011;7917;50.818;6.972;2023-03-01T10:34:52;21.27;;;13.05;;
15635;SDS011;7917;50.818;6.972;2023-03-01T10:37:22;20.15;;;13.07;;
15635;SDS011;7917;50.818;6.972;2023-03-01T10:39:57;18.67;;;12.80;;
15635;SDS011;7917;50.818;6.972;2023-03-01T10:42:27;23.80;;;11.82;;
15635;SDS011;7917;50.818;6.972;2023-03-01T10:44:56;17.35;;;11.52;;
15635;SDS011;7917;50.818;6.972;2023-03-01T10:47:23;21.38;;;11.73;;
15635;SDS011;7917;50.818;6.972;2023-03-01T10:49:53;23.20;;;12.63;;
15635;SDS011;7917;50.818;6.972;2023-03-01T10:52:25;21.73;;;11.32;;
15635;SDS011;7917;50.818;6.972;2023-03-01T10:54:55;18.23;;;11.98;;
15635;SDS011;7917;50.818;6.972;2023-03-01T10:57:37;19.73;;;12.43;;
15635;SDS011;7917;50.818;6.972;2023-03-01T11:00:16;21.70;;;11.40;;
15635;SDS011;7917;50.818;6.972;2023-03-01T11:03:10;19.15;;;12.38;;
15635;SDS011;7917;50.818;6.972;2023-03-01T11:05:39;15.82;;;11.43;;
15635;SDS011;7917;50.818;6.972;2023-03-01T11:08:30;18.20;;;12.40;;
15635;SDS011;7917;50.818;6.972;2023-03-01T11:11:06;17.60;;;11.15;;
15635;SDS011;7917;50.818;6.972;2023-03-01T11:13:48;18.17;;;11.40;;
15635;SDS011;7917;50.818;6.972;2023-03-01T11:16:25;16.73;;;11.60;;
15635;SDS011;7917;50.818;6.972;2023-03-01T11:18:57;16.42;;;11.13;;
15635;SDS011;7917;50.818;6.972;2023-03-01T11:21:32;18.27;;;11.90;;
15635;SDS011;7917;50.818;6.972;2023-03-01T11:24:01;16.27;;;11.15;;
15635;SDS011;7917;50.818;6.972;2023-03-01T11:26:38;16.10;;;10.65;;
15635;SDS011;7917;50.818;6.972;2023-03-01T11:29:09;22.02;;;11.25;;
15635;SDS011;7917;50.818;6.972;2023-03-01T11:31:46;14.73;;;10.95;;
15635;SDS011;7917;50.818;6.972;2023-03-01T11:34:17;18.48;;;10.65;;
15635;SDS011;7917;50.818;6.972;2023-03-01T11:36:51;16.15;;;11.05;;
15635;SDS011;7917;50.818;6.972;2023-03-01T11:39:22;16.17;;;11.35;;
15635;SDS011;7917;50.818;6.972;2023-03-01T11:41:58;16.65;;;11.50;;
15635;SDS011;7917;50.818;6.972;2023-03-01T11:44:31;19.70;;;11.15;;
15635;SDS011;7917;50.818;6.972;2023-03-01T11:47:15;16.65;;;11.38;;
15635;SDS011;7917;50.818;6.972;2023-03-01T11:50:02;15.55;;;10.60;;
15635;SDS011;7917;50.818;6.972;2023-03-01T11:52:42;17.27;;;10.70;;
15635;SDS011;7917;50.818;6.972;2023-03-01T11:55:34;12.63;;;10.02;;
15635;SDS011;7917;50.818;6.972;2023-03-01T11:58:14;15.88;;;9.93;;
15635;SDS011;7917;50.818;6.972;2023-03-01T12:01:04;15.90;;;10.40;;
15635;SDS011;7917;50.818;6.972;2023-03-01T12:03:42;16.83;;;10.80;;
15635;SDS011;7917;50.818;6.972;2023-03-01T12:06:38;18.42;;;11.00;;
15635;SDS011;7917;50.818;6.972;2023-03-01T12:09:21;15.73;;;10.77;;
15635;SDS011;7917;50.818;6.972;2023-03-01T12:12:11;17.70;;;10.27;;
15635;SDS011;7917;50.818;6.972;2023-03-01T12:15:08;14.40;;;10.45;;
15635;SDS011;7917;50.818;6.972;2023-03-01T12:18:06;16.85;;;10.63;;
15635;SDS011;7917;50.818;6.972;2023-03-01T12:20:58;14.45;;;9.85;;
15635;SDS011;7917;50.818;6.972;2023-03-01T12:26:58;19.90;;;11.57;;
15635;SDS011;7917;50.818;6.972;2023-03-01T12:29:37;15.63;;;9.57;;
15635;SDS011;7917;50.818;6.972;2023-03-01T12:32:15;15.70;;;9.40;;
15635;SDS011;7917;50.818;6.972;2023-03-01T12:35:01;18.08;;;9.88;;
15635;SDS011;7917;50.818;6.972;2023-03-01T12:37:41;14.40;;;10.32;;
15635;SDS011;7917;50.818;6.972;2023-03-01T12:40:19;14.32;;;10.02;;
15635;SDS011;7917;50.818;6.972;2023-03-01T12:43:17;13.18;;;9.05;;
15635;SDS011;7917;50.818;6.972;2023-03-01T12:45:54;13.57;;;9.23;;
15635;SDS011;7917;50.818;6.972;2023-03-01T12:48:40;14.18;;;9.38;;
15635;SDS011;7917;50.818;6.972;2023-03-01T12:51:14;19.27;;;9.57;;
15635;SDS011;7917;50.818;6.972;2023-03-01T12:53:43;17.00;;;8.60;;
15635;SDS011;7917;50.818;6.972;2023-03-01T12:56:26;10.05;;;7.82;;
15635;SDS011;7917;50.818;6.972;2023-03-01T12:58:59;14.35;;;9.13;;
15635;SDS011;7917;50.818;6.972;2023-03-01T13:01:34;13.63;;;8.82;;
15635;SDS011;7917;50.818;6.972;2023-03-01T13:04:10;14.93;;;8.85;;
15635;SDS011;7917;50.818;6.972;2023-03-01T13:06:44;13.80;;;9.10;;
15635;SDS011;7917;50.818;6.972;2023-03-01T13:09:23;12.07;;;8.98;;
15635;SDS011;7917;50.818;6.972;2023-03-01T13:11:56;12.98;;;8.40;;
15635;SDS011;7917;50.818;6.972;2023-03-01T13:14:35;13.23;;;8.48;;
15635;SDS011;7917;50.818;6.972;2023-03-01T13:20:29;13.48;;;8.88;;
15635;SDS011;7917;50.818;6.972;2023-03-01T13:23:01;16.27;;;9.45;;
15635;SDS011;7917;50.818;6.972;2023-03-01T13:25:31;14.48;;;8.90;;
15635;SDS011;7917;50.818;6.972;2023-03-01T13:30:59;11.60;;;8.50;;
15635;SDS011;7917;50.818;6.972;2023-03-01T13:33:34;15.20;;;8.98;;
15635;SDS011;7917;50.818;6.972;2023-03-01T13:36:06;15.43;;;9.15;;
15635;SDS011;7917;50.818;6.972;2023-03-01T13:38:38;16.45;;;8.40;;
15635;SDS011;7917;50.818;6.972;2023-03-01T13:41:11;13.90;;;8.52;;
15635;SDS011;7917;50.818;6.972;2023-03-01T13:43:40;11.23;;;7.70;;
15635;SDS011;7917;50.818;6.972;2023-03-01T13:46:09;12.48;;;8.77;;
15635;SDS011;7917;50.818;6.972;2023-03-01T13:48:41;16.30;;;8.27;;
15635;SDS011;7917;50.818;6.972;2023-03-01T13:54:12;13.32;;;7.20;;
15635;SDS011;7917;50.818;6.972;2023-03-01T13:59:49;16.10;;;8.50;;
15635;SDS011;7917;50.818;6.972;2023-03-01T14:02:19;8.95;;;7.22;;
15635;SDS011;7917;50.818;6.972;2023-03-01T14:04:55;10.18;;;7.13;;
15635;SDS011;7917;50.818;6.972;2023-03-01T14:07:23;9.82;;;7.22;;
15635;SDS011;7917;50.818;6.972;2023-03-01T14:09:59;10.93;;;7.47;;
15635;SDS011;7917;50.818;6.972;2023-03-01T14:12:38;11.88;;;7.03;;
15635;SDS011;7917;50.818;6.972;2023-03-01T14:15:14;11.32;;;7.30;;
15635;SDS011;7917;50.818;6.972;2023-03-01T14:17:47;12.30;;;7.32;;
15635;SDS011;7917;50.818;6.972;2023-03-01T14:20:20;11.90;;;7.70;;
15635;SDS011;7917;50.818;6.972;2023-03-01T14:22:48;9.57;;;7.15;;
15635;SDS011;7917;50.818;6.972;2023-03-01T14:25:22;11.50;;;7.47;;
15635;SDS011;7917;50.818;6.972;2023-03-01T14:27:56;12.27;;;7.65;;
15635;SDS011;7917;50.818;6.972;2023-03-01T14:30:26;11.90;;;8.27;;
15635;SDS011;7917;50.818;6.972;2023-03-01T14:32:57;11.25;;;8.32;;
15635;SDS011;7917;50.818;6.972;2023-03-01T14:38:46;11.18;;;7.78;;
15635;SDS011;7917;50.818;6.972;2023-03-01T14:41:14;11.13;;;8.48;;
15635;SDS011;7917;50.818;6.972;2023-03-01T14:43:47;12.00;;;7.85;;
15635;SDS011;7917;50.818;6.972;2023-03-01T14:46:17;11.88;;;7.72;;
15635;SDS011;7917;50.818;6.972;2023-03-01T14:48:48;11.43;;;7.97;;
15635;SDS011;7917;50.818;6.972;2023-03-01T14:51:16;9.90;;;7.82;;
15635;SDS011;7917;50.818;6.972;2023-03-01T14:53:43;12.15;;;8.00;;
15635;SDS011;7917;50.818;6.972;2023-03-01T14:56:15;12.07;;;8.57;;
15635;SDS011;7917;50.818;6.972;2023-03-01T14:58:43;12.48;;;8.30;;
15635;SDS011;7917;50.818;6.972;2023-03-01T15:01:13;10.73;;;8.18;;
15635;SDS011;7917;50.818;6.972;2023-03-01T15:03:43;14.55;;;8.18;;
15635;SDS011;7917;50.818;6.972;2023-03-01T15:06:14;13.90;;;9.23;;
15635;SDS011;7917;50.818;6.972;2023-03-01T15:08:44;11.15;;;7.78;;
15635;SDS011;7917;50.818;6.972;2023-03-01T15:11:18;9.77;;;7.75;;
15635;SDS011;7917;50.818;6.972;2023-03-01T15:13:49;9.77;;;7.15;;
15635;SDS011;7917;50.818;6.972;2023-03-01T15:16:15;9.82;;;6.75;;
15635;SDS011;7917;50.818;6.972;2023-03-01T15:18:48;11.60;;;6.95;;
15635;SDS011;7917;50.818;6.972;2023-03-01T15:21:18;9.95;;;6.60;;
15635;SDS011;7917;50.818;6.972;2023-03-01T15:23:50;13.85;;;7.75;;
15635;SDS011;7917;50.818;6.972;2023-03-01T15:26:24;9.65;;;7.03;;
15635;SDS011;7917;50.818;6.972;2023-03-01T15:28:54;13.18;;;7.78;;